

Wyoming Mesonet
Water Resources Data System and State Climate Office
SEO WACNet, UW USACE UMRB, USDA-ARS, BLM
| Wind | Soil | |||||||||||||||||||
| Temp | Precip | Speed | Dir | Gust | Dir | Humidity | Pressure | Solar | Snow | Temperature (Deg F) | Moisture (%) | |||||||||
| Date Time (MST) | (F) | (in) | (mph) | (deg) | (mph) | (deg) | (%) | (Mbars) | (w/m^2) | (in) | 5cm | 10cm | 20cm | 50cm | 1m | 5cm | 10cm | 20cm | 50cm | 1m |
| 2026-08-30 00:00:00 | 57.22 | 0.00 | 4.35 | 213 | 6.83 | 188 | 81.2 | 479.1 | 0.0 | 0.1 | 68.00 | 69.44 | 70.52 | 68.90 | 66.38 | 6.4% | 8.2% | 7.9% | 15.0% | 11.3% |
| 2026-08-30 01:00:00 | 56.07 | 0.00 | 3.02 | 227 | 6.58 | 231 | 83.9 | 478.9 | 0.0 | 0.1 | 67.28 | 68.90 | 70.52 | 68.90 | 66.38 | 6.4% | 8.2% | 7.8% | 15.6% | 11.3% |
| 2026-08-30 02:00:00 | 57.69 | 0.00 | 1.77 | 271 | 5.96 | 224 | 80.5 | 478.8 | 0.0 | 0.2 | 66.92 | 68.36 | 70.16 | 68.90 | 66.38 | 6.4% | 8.2% | 8.0% | 12.9% | 11.0% |
| 2026-08-30 03:00:00 | 57.07 | 0.00 | 4.43 | 111 | 14.53 | 247 | 87.3 | 479.0 | 0.0 | 0.1 | 66.56 | 68.00 | 69.98 | 68.90 | 66.38 | 6.3% | 8.1% | 7.6% | 14.4% | 10.8% |
| 2026-08-30 04:00:00 | 54.88 | 0.00 | 0.00 | 0 | 5.22 | 329 | 91.1 | 478.8 | 0.0 | 0.1 | 66.38 | 67.64 | 69.80 | 68.90 | 66.38 | 6.4% | 8.1% | 7.8% | 13.0% | 10.5% |
| 2026-08-30 05:00:00 | 53.89 | 0.00 | 0.02 | 183 | 4.85 | 83 | 90.6 | 479.1 | 0.0 | 0.1 | 65.84 | 67.46 | 69.44 | 68.90 | 66.38 | 6.4% | 8.1% | 7.7% | 14.0% | 10.9% |
| 2026-08-30 06:00:00 | 52.57 | 0.00 | 3.02 | 105 | 5.34 | 106 | 93.6 | 478.9 | 24.9 | 0.0 | 65.12 | 66.92 | 69.26 | 69.08 | 66.38 | 6.4% | 8.1% | 7.8% | 12.6% | 10.6% |
| 2026-08-30 07:00:00 | 54.50 | 0.00 | 0.40 | 326 | 5.22 | 106 | 91.2 | 479.1 | 225.7 | 0.1 | 64.58 | 66.56 | 69.08 | 68.90 | 66.38 | 6.3% | 8.0% | 8.0% | 14.7% | 10.7% |
| 2026-08-30 08:00:00 | 62.04 | 0.00 | 8.20 | 331 | 10.31 | 325 | 73.3 | 478.8 | 437.3 | 0.2 | 64.58 | 66.20 | 68.90 | 68.90 | 66.38 | 6.4% | 8.0% | 7.7% | 13.4% | 10.7% |
| 2026-08-30 09:00:00 | 67.12 | 0.00 | 5.70 | 351 | 13.91 | 338 | 61.5 | 478.8 | 571.1 | 0.2 | 65.30 | 66.20 | 68.54 | 68.90 | 66.38 | 6.4% | 8.1% | 7.9% | 15.5% | 10.6% |
| 2026-08-30 10:00:00 | 57.92 | 0.00 | 9.78 | 347 | 37.76 | 328 | 77.5 | 478.5 | 127.3 | 0.0 | 66.92 | 66.74 | 68.36 | 68.90 | 66.38 | 6.4% | 8.1% | 7.7% | 13.4% | 10.8% |
| 2026-08-30 11:00:00 | 61.18 | 0.00 | 3.65 | 354 | 16.15 | 339 | 69.6 | 478.8 | 264.5 | 0.1 | 67.82 | 67.46 | 68.18 | 68.90 | 66.38 | 6.5% | 8.1% | 7.9% | 13.1% | 11.1% |
| 2026-08-30 12:00:00 | 66.72 | 0.00 | 1.97 | 4 | 19.89 | 335 | 50.3 | 478.7 | 850.0 | 0.0 | 68.72 | 68.00 | 68.18 | 68.72 | 66.38 | 6.3% | 8.2% | 8.0% | 13.0% | 11.9% |
| 2026-08-30 13:00:00 | 72.28 | 0.00 | 5.73 | 131 | 10.06 | 161 | 43.5 | 478.5 | 382.4 | 0.1 | 71.06 | 68.90 | 68.00 | 68.72 | 66.38 | 6.5% | 8.2% | 8.0% | 13.9% | 10.4% |
| 2026-08-30 14:00:00 | 71.91 | 0.00 | 3.58 | 108 | 9.81 | 141 | 37.7 | 478.5 | 759.5 | 0.0 | 72.50 | 70.16 | 68.18 | 68.72 | 66.38 | 6.5% | 8.3% | 7.9% | 13.6% | 10.2% |
| 2026-08-30 15:00:00 | 72.59 | 0.00 | 3.74 | 326 | 10.31 | 336 | 37.7 | 478.5 | 640.8 | 0.1 | 72.86 | 70.88 | 68.36 | 68.54 | 66.38 | 6.5% | 8.3% | 8.0% | 12.1% | 10.4% |
| 2026-08-30 16:00:00 | 74.80 | 0.00 | 1.96 | 16 | 11.31 | 51 | 41.5 | 478.4 | 488.9 | -0.1 | 73.04 | 71.24 | 68.72 | 68.54 | 66.38 | 6.5% | 8.3% | 7.8% | 11.7% | 10.6% |
| 2026-08-30 17:00:00 | 72.18 | 0.00 | 4.77 | 338 | 9.19 | 58 | 36.4 | 478.4 | 315.7 | -0.0 | 73.04 | 71.42 | 68.90 | 68.54 | 66.38 | 6.5% | 8.4% | 8.0% | 13.4% | 10.5% |
| 2026-08-30 18:00:00 | 68.76 | 0.00 | 0.24 | 8 | 7.21 | 352 | 40.7 | 478.4 | 41.0 | -0.1 | 72.32 | 71.42 | 69.26 | 68.54 | 66.38 | 6.5% | 8.2% | 7.9% | 15.0% | 10.9% |
| 2026-08-30 19:00:00 | 64.33 | 0.00 | 0.30 | 256 | 2.49 | 283 | 52.2 | 478.4 | 1.2 | -0.1 | 70.88 | 70.88 | 69.44 | 68.54 | 66.38 | 6.5% | 8.3% | 7.7% | 12.9% | 11.1% |
| 2026-08-30 20:00:00 | 58.93 | 0.00 | 2.73 | 271 | 5.46 | 265 | 61.6 | 478.7 | 0.0 | -0.1 | 69.44 | 70.34 | 69.44 | 68.36 | 66.38 | 6.5% | 8.3% | 7.9% | 15.5% | 10.7% |
| 2026-08-30 21:00:00 | 55.47 | 0.00 | 2.82 | 281 | 5.84 | 221 | 71.4 | 479.0 | 0.0 | 0.0 | 68.18 | 69.44 | 69.62 | 68.36 | 66.38 | 6.5% | 8.1% | 8.0% | 12.7% | 11.0% |
| 2026-08-30 22:00:00 | 53.46 | 0.00 | 4.35 | 217 | 6.34 | 205 | 74.7 | 479.0 | 0.0 | -0.1 | 67.10 | 68.72 | 69.44 | 68.36 | 66.38 | 6.5% | 8.2% | 7.8% | 14.7% | 11.0% |
| 2026-08-30 23:00:00 | 50.90 | 0.00 | 2.21 | 145 | 6.58 | 225 | 81.4 | 479.0 | 0.0 | -0.1 | 66.02 | 68.00 | 69.44 | 68.36 | 66.38 | 6.4% | 8.1% | 7.7% | 12.9% | 10.8% |